createdAt,value
2023-05-09T00:01:51.172Z,100.00
2023-05-09T00:04:23.705Z,100.00
2023-05-09T00:06:56.728Z,100.00
2023-05-09T00:09:29.046Z,100.00
2023-05-09T00:12:01.878Z,100.00
2023-05-09T00:14:34.279Z,100.00
2023-05-09T00:17:06.998Z,100.00
2023-05-09T00:19:39.579Z,100.00
2023-05-09T00:22:12.828Z,100.00
2023-05-09T00:24:45.199Z,100.00
2023-05-09T00:27:17.816Z,100.00
2023-05-09T00:29:50.123Z,100.00
2023-05-09T00:32:22.626Z,100.00
2023-05-09T00:34:55.069Z,100.00
2023-05-09T00:37:29.895Z,100.00
2023-05-09T00:40:03.175Z,100.00
2023-05-09T00:42:36.074Z,100.00
2023-05-09T00:45:09.534Z,100.00
2023-05-09T00:47:42.491Z,100.00
2023-05-09T00:50:14.895Z,100.00
2023-05-09T00:52:47.893Z,100.00
2023-05-09T00:55:20.371Z,100.00
2023-05-09T00:57:52.758Z,100.00
2023-05-09T01:00:25.182Z,100.00
2023-05-09T01:02:58.340Z,100.00
2023-05-09T01:05:38.148Z,100.00
2023-05-09T01:08:17.371Z,100.00
2023-05-09T01:11:03.341Z,100.00
2023-05-09T01:13:44.190Z,100.00
2023-05-09T01:16:25.386Z,100.00
2023-05-09T01:19:06.414Z,100.00
2023-05-09T01:21:43.381Z,100.00
2023-05-09T01:24:52.047Z,100.00
2023-05-09T01:27:38.894Z,100.00
2023-05-09T01:30:13.204Z,100.00
2023-05-09T01:32:49.386Z,100.00
2023-05-09T01:35:25.605Z,100.00
2023-05-09T01:37:59.106Z,100.00
2023-05-09T01:40:33.061Z,100.00
2023-05-09T01:43:09.528Z,100.00
2023-05-09T01:45:44.135Z,100.00
2023-05-09T01:48:17.187Z,100.00
2023-05-09T01:50:49.823Z,100.00
2023-05-09T01:53:23.974Z,100.00
2023-05-09T01:55:57.282Z,100.00
2023-05-09T01:58:32.024Z,100.00
2023-05-09T02:01:05.746Z,100.00
2023-05-09T02:03:39.667Z,100.00
2023-05-09T02:06:12.583Z,100.00
2023-05-09T02:08:45.587Z,100.00
2023-05-09T02:11:17.986Z,100.00
2023-05-09T02:13:50.416Z,100.00
2023-05-09T02:16:23.447Z,100.00
2023-05-09T02:18:55.735Z,100.00
2023-05-09T02:21:29.188Z,100.00
2023-05-09T02:24:01.986Z,100.00
2023-05-09T02:26:35.587Z,100.00
2023-05-09T02:29:10.468Z,100.00
2023-05-09T02:31:46.171Z,100.00
2023-05-09T02:34:19.409Z,100.00
2023-05-09T02:36:51.887Z,100.00
2023-05-09T02:39:24.353Z,100.00
2023-05-09T02:41:56.694Z,100.00
2023-05-09T02:44:30.799Z,100.00
2023-05-09T02:47:04.694Z,100.00
2023-05-09T02:49:36.975Z,100.00
2023-05-09T02:52:10.854Z,100.00
2023-05-09T02:54:43.337Z,100.00
2023-05-09T02:57:15.748Z,100.00
2023-05-09T02:59:48.072Z,100.00
2023-05-09T03:02:22.574Z,100.00
2023-05-09T03:04:55.915Z,100.00
2023-05-09T03:07:28.669Z,100.00
2023-05-09T03:10:01.894Z,100.00
2023-05-09T03:12:35.449Z,100.00
2023-05-09T03:15:08.912Z,100.00
2023-05-09T03:17:46.425Z,100.00
2023-05-09T03:20:18.941Z,100.00
2023-05-09T03:22:51.204Z,100.00
2023-05-09T03:25:25.471Z,100.00
2023-05-09T03:27:57.749Z,100.00
2023-05-09T03:30:30.162Z,100.00
2023-05-09T03:33:05.522Z,100.00
2023-05-09T03:35:37.873Z,100.00
2023-05-09T03:38:10.662Z,100.00
2023-05-09T03:40:43.156Z,100.00
2023-05-09T03:43:18.414Z,100.00
2023-05-09T03:45:50.765Z,100.00
2023-05-09T03:48:24.175Z,100.00
2023-05-09T03:50:57.383Z,100.00
2023-05-09T03:53:32.618Z,100.00
2023-05-09T03:56:05.815Z,100.00
2023-05-09T03:58:43.073Z,100.00
2023-05-09T04:01:17.065Z,100.00
2023-05-09T04:03:51.725Z,100.00
2023-05-09T04:06:25.569Z,100.00
2023-05-09T04:08:58.029Z,100.00
2023-05-09T04:11:30.726Z,100.00
2023-05-09T04:14:06.404Z,100.00
2023-05-09T04:16:42.217Z,100.00
2023-05-09T04:19:15.602Z,100.00
2023-05-09T04:21:47.933Z,100.00
2023-05-09T04:24:20.368Z,100.00
2023-05-09T04:26:54.055Z,100.00
2023-05-09T04:29:29.106Z,100.00
2023-05-09T04:32:02.510Z,100.00
2023-05-09T04:34:35.626Z,100.00
2023-05-09T04:37:14.077Z,100.00
2023-05-09T04:39:47.159Z,100.00
2023-05-09T04:42:25.733Z,100.00
2023-05-09T04:44:58.026Z,100.00
2023-05-09T04:47:30.769Z,100.00
2023-05-09T04:50:04.130Z,100.00
2023-05-09T04:52:36.493Z,100.00
2023-05-09T04:55:10.302Z,100.00
2023-05-09T04:57:47.061Z,100.00
2023-05-09T05:00:20.584Z,100.00
2023-05-09T05:02:54.644Z,100.00
2023-05-09T05:05:30.699Z,100.00
2023-05-09T05:08:04.336Z,100.00
2023-05-09T05:10:40.861Z,100.00
2023-05-09T05:13:16.473Z,100.00
2023-05-09T05:15:51.836Z,100.00
2023-05-09T05:18:26.363Z,100.00
2023-05-09T05:21:00.201Z,100.00
2023-05-09T05:23:32.950Z,100.00
2023-05-09T05:26:05.392Z,100.00
2023-05-09T05:28:40.557Z,100.00
2023-05-09T05:31:12.939Z,100.00
2023-05-09T05:33:45.269Z,100.00
2023-05-09T05:36:18.464Z,100.00
2023-05-09T05:38:51.300Z,100.00
2023-05-09T05:41:23.622Z,100.00
2023-05-09T05:43:56.595Z,100.00
2023-05-09T05:46:28.881Z,100.00
2023-05-09T05:49:02.003Z,100.00
2023-05-09T05:51:35.451Z,100.00
2023-05-09T05:54:08.973Z,100.00
2023-05-09T05:56:42.392Z,100.00
2023-05-09T05:59:15.668Z,100.00
2023-05-09T06:01:48.094Z,100.00
2023-05-09T06:04:21.001Z,100.00
2023-05-09T06:06:54.018Z,100.00
2023-05-09T06:09:26.338Z,100.00
2023-05-09T06:11:58.732Z,100.00
2023-05-09T06:14:31.293Z,100.00
2023-05-09T06:17:03.832Z,100.00
2023-05-09T06:19:36.791Z,100.00
2023-05-09T06:22:09.834Z,100.00
2023-05-09T06:24:42.144Z,100.00
2023-05-09T06:27:14.490Z,100.00
2023-05-09T06:29:46.825Z,100.00
2023-05-09T06:32:19.155Z,100.00
2023-05-09T06:34:52.009Z,100.00
2023-05-09T06:37:25.679Z,100.00
2023-05-09T06:39:57.964Z,100.00
2023-05-09T06:42:31.968Z,100.00
2023-05-09T06:45:05.237Z,100.00
2023-05-09T06:47:37.684Z,100.00
2023-05-09T06:50:10.245Z,100.00
2023-05-09T06:52:43.522Z,100.00
2023-05-09T06:55:16.240Z,100.00
2023-05-09T06:57:48.772Z,100.00
2023-05-09T07:00:22.164Z,100.00
2023-05-09T07:02:54.487Z,100.00
2023-05-09T07:05:27.071Z,100.00
2023-05-09T07:08:00.154Z,100.00
2023-05-09T07:10:32.748Z,100.00
2023-05-09T07:13:05.140Z,100.00
2023-05-09T07:15:41.794Z,100.00
2023-05-09T07:18:15.123Z,100.00
2023-05-09T07:20:47.471Z,100.00
2023-05-09T07:23:20.457Z,100.00
2023-05-09T07:25:57.138Z,100.00
2023-05-09T07:28:29.461Z,100.00
2023-05-09T07:31:02.643Z,100.00
2023-05-09T07:33:35.034Z,100.00
2023-05-09T07:36:07.458Z,100.00
2023-05-09T07:38:40.454Z,100.00
2023-05-09T07:41:12.778Z,100.00
2023-05-09T07:43:45.121Z,100.00
2023-05-09T07:46:17.534Z,100.00
2023-05-09T07:48:49.841Z,100.00
2023-05-09T07:51:22.109Z,100.00
2023-05-09T07:53:55.812Z,100.00
2023-05-09T07:56:28.103Z,100.00
2023-05-09T07:59:00.892Z,100.00
2023-05-09T08:01:33.242Z,100.00
2023-05-09T08:04:08.302Z,100.00
2023-05-09T08:06:40.720Z,100.00
2023-05-09T08:09:13.672Z,100.00
2023-05-09T08:11:46.124Z,100.00
2023-05-09T08:14:18.404Z,100.00
2023-05-09T08:16:50.710Z,100.00
2023-05-09T08:19:25.354Z,100.00
2023-05-09T08:21:57.697Z,100.00
2023-05-09T08:24:31.362Z,100.00
2023-05-09T08:27:03.782Z,100.00
2023-05-09T08:29:36.074Z,99.23
2023-05-09T08:32:08.558Z,99.66
2023-05-09T08:34:40.852Z,99.99
2023-05-09T08:37:15.237Z,99.21
2023-05-09T08:39:48.592Z,97.90
2023-05-09T08:42:23.954Z,94.97
2023-05-09T08:44:58.773Z,96.78
2023-05-09T08:47:34.473Z,96.07
2023-05-09T08:50:08.397Z,94.57
2023-05-09T08:52:41.134Z,95.63
2023-05-09T08:55:14.476Z,96.33
2023-05-09T08:57:47.137Z,94.71
2023-05-09T09:00:20.877Z,92.87
2023-05-09T09:02:53.862Z,94.13
2023-05-09T09:05:40.739Z,95.40
2023-05-09T09:08:14.839Z,91.01
2023-05-09T09:10:47.813Z,93.74
2023-05-09T09:13:20.659Z,93.29
2023-05-09T09:15:54.345Z,92.52
2023-05-09T09:18:30.064Z,91.75
2023-05-09T09:21:06.669Z,90.76
2023-05-09T09:23:42.292Z,90.05
2023-05-09T09:26:15.724Z,88.78
2023-05-09T09:28:48.134Z,87.59
2023-05-09T09:31:21.874Z,90.97
2023-05-09T09:33:59.983Z,92.50
2023-05-09T09:36:32.891Z,95.52
2023-05-09T09:39:05.322Z,93.23
2023-05-09T09:41:39.444Z,93.13
2023-05-09T09:44:15.592Z,95.57
2023-05-09T09:46:49.909Z,92.79
2023-05-09T09:49:23.744Z,90.61
2023-05-09T09:51:57.499Z,83.41
2023-05-09T09:54:31.872Z,91.12
2023-05-09T09:57:04.849Z,84.96
2023-05-09T09:59:37.222Z,82.95
2023-05-09T10:02:11.605Z,79.28
2023-05-09T10:04:43.856Z,78.09
2023-05-09T10:07:19.818Z,83.23
2023-05-09T10:09:52.075Z,82.15
2023-05-09T10:12:25.185Z,79.52
2023-05-09T10:14:57.637Z,77.14
2023-05-09T10:17:31.966Z,76.87
2023-05-09T10:20:06.212Z,81.53
2023-05-09T10:22:40.105Z,80.80
2023-05-09T10:25:19.218Z,79.76
2023-05-09T10:27:56.174Z,75.47
2023-05-09T10:30:33.965Z,74.85
2023-05-09T10:33:12.835Z,75.39
2023-05-09T10:35:47.055Z,73.78
2023-05-09T10:38:19.427Z,72.83
2023-05-09T10:40:54.028Z,69.81
2023-05-09T10:43:28.047Z,67.73
2023-05-09T10:46:01.526Z,69.11
2023-05-09T10:48:34.320Z,68.51
2023-05-09T10:51:07.669Z,67.78
2023-05-09T10:53:42.785Z,69.19
2023-05-09T10:56:26.269Z,74.64
2023-05-09T10:58:59.874Z,64.76
2023-05-09T11:01:36.158Z,62.04
2023-05-09T11:04:10.383Z,62.18
2023-05-09T11:06:46.900Z,64.34
2023-05-09T11:09:24.424Z,58.72
2023-05-09T11:11:58.163Z,60.41
2023-05-09T11:14:32.389Z,63.64
2023-05-09T11:17:06.260Z,65.27
2023-05-09T11:19:57.487Z,63.05
2023-05-09T11:22:31.925Z,63.98
2023-05-09T11:25:06.610Z,61.74
2023-05-09T11:27:42.652Z,64.94
2023-05-09T11:30:17.049Z,65.41
2023-05-09T11:32:51.785Z,66.34
2023-05-09T11:35:26.136Z,65.48
2023-05-09T11:38:01.053Z,65.42
2023-05-09T11:40:34.568Z,67.11
2023-05-09T11:43:08.084Z,68.17
2023-05-09T11:45:41.390Z,71.49
2023-05-09T11:48:13.701Z,73.97
2023-05-09T11:50:47.098Z,74.88
2023-05-09T11:53:19.503Z,76.06
2023-05-09T11:55:51.853Z,75.24
2023-05-09T11:58:24.220Z,74.15
2023-05-09T12:00:57.524Z,76.25
2023-05-09T12:03:30.275Z,76.37
2023-05-09T12:06:02.802Z,76.82
2023-05-09T12:08:35.960Z,76.32
2023-05-09T12:11:09.342Z,75.03
2023-05-09T12:13:46.565Z,73.87
2023-05-09T12:16:20.449Z,75.75
2023-05-09T12:18:53.619Z,77.46
2023-05-09T12:21:25.940Z,78.45
2023-05-09T12:23:58.879Z,80.53
2023-05-09T12:26:31.626Z,82.38
2023-05-09T12:29:04.245Z,83.83
2023-05-09T12:31:37.308Z,83.00
2023-05-09T12:34:10.149Z,84.91
2023-05-09T12:36:49.904Z,82.20
2023-05-09T12:39:22.353Z,84.41
2023-05-09T12:42:01.697Z,82.44
2023-05-09T12:44:34.618Z,85.13
2023-05-09T12:47:07.861Z,82.85
2023-05-09T12:49:40.361Z,79.47
2023-05-09T12:52:18.875Z,82.94
2023-05-09T12:54:52.315Z,84.11
2023-05-09T12:57:27.090Z,84.93
2023-05-09T13:00:01.804Z,83.73
2023-05-09T13:02:36.861Z,79.86
2023-05-09T13:05:11.251Z,81.27
2023-05-09T13:07:45.085Z,81.94
2023-05-09T13:10:20.743Z,83.50
2023-05-09T13:12:53.090Z,83.39
2023-05-09T13:15:26.076Z,80.70
2023-05-09T13:17:59.162Z,79.08
2023-05-09T13:20:31.634Z,74.57
2023-05-09T13:23:04.252Z,74.17
2023-05-09T13:25:36.576Z,76.58
2023-05-09T13:28:08.893Z,74.67
2023-05-09T13:30:41.413Z,74.66
2023-05-09T13:33:25.066Z,80.78
2023-05-09T13:35:57.851Z,82.39
2023-05-09T13:38:31.434Z,85.17
2023-05-09T13:41:03.922Z,86.27
2023-05-09T13:43:36.693Z,87.46
2023-05-09T13:46:09.055Z,89.07
2023-05-09T13:48:42.105Z,90.14
2023-05-09T13:51:14.437Z,90.45
2023-05-09T13:53:46.957Z,92.50
2023-05-09T13:56:19.252Z,92.34
2023-05-09T13:58:51.598Z,91.85
2023-05-09T14:01:24.125Z,93.15
2023-05-09T14:03:57.164Z,94.20
2023-05-09T14:06:29.562Z,94.46
2023-05-09T14:09:03.320Z,94.96
2023-05-09T14:11:35.793Z,95.80
2023-05-09T14:14:08.208Z,95.62
2023-05-09T14:16:40.462Z,97.00
2023-05-09T14:19:14.510Z,96.15
2023-05-09T14:21:46.963Z,96.27
2023-05-09T14:24:19.273Z,96.26
2023-05-09T14:26:51.751Z,96.40
2023-05-09T14:29:24.052Z,96.94
2023-05-09T14:31:56.443Z,98.07
2023-05-09T14:34:29.446Z,98.45
2023-05-09T14:37:01.981Z,98.78
2023-05-09T14:39:34.223Z,97.70
2023-05-09T14:42:09.329Z,97.52
2023-05-09T14:44:42.095Z,97.77
2023-05-09T14:47:16.139Z,96.88
2023-05-09T14:49:49.158Z,95.62
2023-05-09T14:52:21.432Z,95.67
2023-05-09T14:54:53.693Z,95.50
2023-05-09T14:57:26.064Z,94.77
2023-05-09T15:00:03.180Z,96.79
2023-05-09T15:02:41.775Z,97.28
2023-05-09T15:05:15.992Z,96.38
2023-05-09T15:07:48.269Z,98.37
2023-05-09T15:10:20.666Z,97.71
2023-05-09T15:12:53.028Z,97.50
2023-05-09T15:15:26.256Z,97.33
2023-05-09T15:17:58.567Z,98.27
2023-05-09T15:20:31.640Z,98.46
2023-05-09T15:23:05.890Z,98.89
2023-05-09T15:25:43.818Z,99.74
2023-05-09T15:28:16.078Z,98.95
2023-05-09T15:30:48.374Z,99.91
2023-05-09T15:33:20.761Z,100.00
2023-05-09T15:35:57.152Z,100.00
2023-05-09T15:38:29.428Z,100.00
2023-05-09T15:41:02.344Z,99.54
2023-05-09T15:43:34.618Z,99.95
2023-05-09T15:46:07.108Z,100.00
2023-05-09T15:48:39.433Z,100.00
2023-05-09T15:51:13.121Z,100.00
2023-05-09T15:53:45.465Z,100.00
2023-05-09T15:56:17.784Z,100.00
2023-05-09T15:58:50.102Z,100.00
2023-05-09T16:01:22.487Z,100.00
2023-05-09T16:03:55.259Z,100.00
2023-05-09T16:06:28.648Z,100.00
2023-05-09T16:09:01.636Z,100.00
2023-05-09T16:11:33.991Z,100.00
2023-05-09T16:14:08.636Z,100.00
2023-05-09T16:16:42.105Z,100.00
2023-05-09T16:19:14.471Z,100.00
2023-05-09T16:21:47.783Z,100.00
2023-05-09T16:24:20.128Z,100.00
2023-05-09T16:26:52.414Z,100.00
2023-05-09T16:29:24.757Z,100.00
2023-05-09T16:31:57.515Z,100.00
2023-05-09T16:34:29.851Z,100.00
2023-05-09T16:37:03.098Z,100.00
2023-05-09T16:39:35.422Z,100.00
2023-05-09T16:42:07.777Z,100.00
2023-05-09T16:44:40.066Z,100.00
2023-05-09T16:47:12.352Z,100.00
2023-05-09T16:49:44.595Z,100.00
2023-05-09T16:52:17.587Z,100.00
2023-05-09T16:54:50.054Z,100.00
2023-05-09T16:57:22.288Z,100.00
2023-05-09T16:59:54.989Z,100.00
2023-05-09T17:02:27.337Z,100.00
2023-05-09T17:04:59.724Z,100.00
2023-05-09T17:07:32.881Z,100.00
2023-05-09T17:10:06.067Z,100.00
2023-05-09T17:12:38.787Z,100.00
2023-05-09T17:15:11.479Z,100.00
2023-05-09T17:17:43.830Z,100.00
2023-05-09T17:20:16.286Z,100.00
2023-05-09T17:22:49.460Z,100.00
2023-05-09T17:25:22.302Z,100.00
2023-05-09T17:27:54.613Z,100.00
2023-05-09T17:30:26.965Z,100.00
2023-05-09T17:32:59.387Z,100.00
2023-05-09T17:35:31.747Z,100.00
2023-05-09T17:38:04.778Z,100.00
2023-05-09T17:40:37.439Z,100.00
2023-05-09T17:43:09.790Z,100.00
2023-05-09T17:45:42.151Z,100.00
2023-05-09T17:48:15.228Z,100.00
2023-05-09T17:50:47.612Z,100.00
2023-05-09T17:53:21.000Z,100.00
2023-05-09T17:55:53.293Z,100.00
2023-05-09T17:58:27.003Z,100.00
2023-05-09T18:00:59.398Z,100.00
2023-05-09T18:03:31.846Z,100.00
2023-05-09T18:06:04.367Z,100.00
2023-05-09T18:08:37.392Z,100.00
2023-05-09T18:11:09.965Z,100.00
2023-05-09T18:13:42.308Z,100.00
2023-05-09T18:16:14.640Z,100.00
2023-05-09T18:18:47.047Z,100.00
2023-05-09T18:21:19.692Z,100.00
2023-05-09T18:23:53.448Z,100.00
2023-05-09T18:26:28.079Z,100.00
2023-05-09T18:29:00.386Z,100.00
2023-05-09T18:31:37.876Z,100.00
2023-05-09T18:34:10.483Z,100.00
2023-05-09T18:36:42.790Z,100.00
2023-05-09T18:39:15.715Z,100.00
2023-05-09T18:41:47.959Z,100.00
2023-05-09T18:44:20.230Z,100.00
2023-05-09T18:46:53.185Z,100.00
2023-05-09T18:49:26.104Z,100.00
2023-05-09T18:51:59.374Z,100.00
2023-05-09T18:54:32.406Z,100.00
2023-05-09T18:57:04.729Z,100.00
2023-05-09T18:59:37.016Z,100.00
2023-05-09T19:02:09.372Z,100.00
2023-05-09T19:04:41.877Z,100.00
2023-05-09T19:07:14.359Z,100.00
2023-05-09T19:09:47.376Z,100.00
2023-05-09T19:12:19.734Z,100.00
2023-05-09T19:14:52.215Z,100.00
2023-05-09T19:17:24.523Z,100.00
2023-05-09T19:19:56.832Z,100.00
2023-05-09T19:22:29.160Z,100.00
2023-05-09T19:25:02.748Z,100.00
2023-05-09T19:27:35.030Z,100.00
2023-05-09T19:30:08.533Z,100.00
2023-05-09T19:32:41.109Z,100.00
2023-05-09T19:35:13.522Z,100.00
2023-05-09T19:37:45.863Z,100.00
2023-05-09T19:40:19.024Z,100.00
2023-05-09T19:42:51.312Z,100.00
2023-05-09T19:45:23.642Z,100.00
2023-05-09T19:47:55.991Z,100.00
2023-05-09T19:50:28.384Z,100.00
2023-05-09T19:53:00.838Z,100.00
2023-05-09T19:55:33.837Z,100.00
2023-05-09T19:58:06.154Z,100.00
2023-05-09T20:00:38.436Z,100.00
2023-05-09T20:03:11.018Z,100.00
2023-05-09T20:05:44.408Z,100.00
2023-05-09T20:08:16.697Z,100.00
2023-05-09T20:10:49.607Z,100.00
2023-05-09T20:13:22.057Z,100.00
2023-05-09T20:15:54.530Z,100.00
2023-05-09T20:18:27.036Z,100.00
2023-05-09T20:20:59.335Z,100.00
2023-05-09T20:23:31.614Z,100.00
2023-05-09T20:26:04.645Z,100.00
2023-05-09T20:28:37.493Z,100.00
2023-05-09T20:31:10.064Z,100.00
2023-05-09T20:33:42.446Z,100.00
2023-05-09T20:36:14.946Z,100.00
2023-05-09T20:38:47.261Z,100.00
2023-05-09T20:41:21.137Z,100.00
2023-05-09T20:43:53.556Z,100.00
2023-05-09T20:46:25.909Z,100.00
2023-05-09T20:48:58.195Z,100.00
2023-05-09T20:51:31.097Z,100.00
2023-05-09T20:54:03.580Z,100.00
2023-05-09T20:56:36.557Z,100.00
2023-05-09T20:59:08.878Z,100.00
2023-05-09T21:01:41.244Z,100.00
2023-05-09T21:04:15.076Z,100.00
2023-05-09T21:06:47.492Z,100.00
2023-05-09T21:09:19.801Z,100.00
2023-05-09T21:11:52.809Z,100.00
2023-05-09T21:14:25.090Z,100.00
2023-05-09T21:16:57.635Z,100.00
2023-05-09T21:19:29.877Z,100.00
2023-05-09T21:22:02.669Z,100.00
2023-05-09T21:24:35.009Z,100.00
2023-05-09T21:27:07.933Z,100.00
2023-05-09T21:29:40.238Z,100.00
2023-05-09T21:32:12.554Z,100.00
2023-05-09T21:34:47.529Z,100.00
2023-05-09T21:37:20.030Z,100.00
2023-05-09T21:39:52.306Z,100.00
2023-05-09T21:42:25.321Z,100.00
2023-05-09T21:44:57.609Z,100.00
2023-05-09T21:47:30.088Z,100.00
2023-05-09T21:50:03.449Z,100.00
2023-05-09T21:52:35.824Z,100.00
2023-05-09T21:55:08.895Z,100.00
2023-05-09T21:57:41.863Z,100.00
2023-05-09T22:00:16.060Z,100.00
2023-05-09T22:02:49.878Z,100.00
2023-05-09T22:05:23.011Z,100.00
2023-05-09T22:07:55.355Z,100.00
2023-05-09T22:10:28.034Z,100.00
2023-05-09T22:13:01.529Z,100.00
2023-05-09T22:15:33.836Z,100.00
2023-05-09T22:18:06.364Z,100.00
2023-05-09T22:20:38.697Z,100.00
2023-05-09T22:23:11.006Z,100.00
2023-05-09T22:25:43.362Z,100.00
2023-05-09T22:28:16.364Z,100.00
2023-05-09T22:30:48.666Z,100.00
2023-05-09T22:33:21.243Z,100.00
2023-05-09T22:35:53.533Z,100.00
2023-05-09T22:38:25.955Z,100.00
2023-05-09T22:40:58.280Z,100.00
2023-05-09T22:43:38.789Z,100.00
2023-05-09T22:46:12.129Z,100.00
2023-05-09T22:48:44.536Z,100.00
2023-05-09T22:51:16.852Z,100.00
2023-05-09T22:53:49.160Z,100.00
2023-05-09T22:56:21.820Z,100.00
2023-05-09T22:58:54.946Z,100.00
2023-05-09T23:01:27.383Z,100.00
2023-05-09T23:03:59.860Z,100.00
2023-05-09T23:06:32.702Z,100.00
2023-05-09T23:13:42.768Z,100.00
2023-05-09T23:16:15.937Z,100.00
2023-05-09T23:18:48.317Z,100.00
2023-05-09T23:21:20.652Z,100.00
2023-05-09T23:23:52.945Z,100.00
2023-05-09T23:26:25.337Z,100.00
2023-05-09T23:28:57.660Z,100.00
2023-05-09T23:31:30.656Z,100.00
2023-05-09T23:34:03.050Z,100.00
2023-05-09T23:36:35.367Z,100.00
2023-05-09T23:39:07.733Z,100.00
2023-05-09T23:41:40.037Z,100.00
2023-05-09T23:44:12.498Z,100.00
2023-05-09T23:46:45.604Z,100.00
2023-05-09T23:49:18.006Z,100.00
2023-05-09T23:51:50.306Z,100.00
2023-05-09T23:54:23.674Z,100.00
2023-05-09T23:56:56.664Z,100.00
2023-05-09T23:59:28.940Z,100.00
